Terminal Aerodrome Forecast
Issued by NWS Charleston, WV

Current Version | Previous Version | Graphics & Text | Print | Product List | Glossary On
Versions: 1 2 3 4 5 6 7 8 9 10 11 12 13 14 15 16 17 18 19 20 21 22 23 24 25
000
FTUS41 KRLX 191700
TAFHTS
TAF
KHTS 191730Z 1918/2018 24004KT 4SM BR SCT012 BKN026
     FM192000 22004KT P6SM SCT022 BKN080
     FM192200 00000KT 6SM BR BKN035
     FM200700 00000KT 5SM BR BKN040
     FM200800 00000KT 3SM BR BKN035
     FM201000 22003KT 1/2SM FG BKN003
     FM201400 21004KT 3SM BR BKN008
     FM201600 21005KT 6SM BR BKN050=

USA.gov is the U.S. government's official web portal to all federal, state and local government web resources and services.